Coderre, Canada
Current Conditions -  °F | °C
As of 12:00 PM on Thursday 30 Oct 2014 (Local Time) from CYMJ Reporting Station
Rain Showers Rain Showers  
Wind Chill: 26°   Ceiling: 1100
Heat Index: 34°   Visibility: 15mi
Dew Point: 28°   Wind: 9mph
Humidity: 81%   Direction: 130°SE
Pressure: 30.47"   Gusts: NA
Location:  50.13°N, 106.38°W
Report Text: CYMJ 301800Z 13008KT 15SM VCSH FEW008 OVC011 01/M02 A3047 RMKSF2SC6 SLP345
Loading
Personal Weather Stations






























Interactive Weather Map
Tropical Storm Tracking
New forecast layout! Learn more

10-Day Weather Forecast

Advertisements
Track Severe Weather on mobile